Time;durP1;ratioP1;P1;durP2;ratioP2;P2;SDS_P1;SDS_P2;PMS_P1;PMS_P2;Temp;Humidity;BMP_temperature;BMP_pressure;BME280_temperature;BME280_humidity;BME280_pressure;Samples;Min_cycle;Max_cycle;Signal;HPM_P1;HPM_P2
2022/08/18 00:01:21;;;;;;;14.00;9.90;;;;;;;17.92;100.00;100731.84;5057276;28;20032;-77
2022/08/18 00:03:48;;;;;;;12.80;10.93;;;;;;;17.86;100.00;100732.72;5083155;28;20111;-77
2022/08/18 00:06:14;;;;;;;13.70;10.25;;;;;;;17.83;100.00;100753.88;5046642;28;20048;-75
2022/08/18 00:08:39;;;;;;;17.50;10.35;;;;;;;17.90;100.00;100752.00;5048830;28;20012;-79
2022/08/18 00:11:05;;;;;;;11.93;9.27;;;;;;;17.91;100.00;100748.25;5047638;28;20498;-77
2022/08/18 00:13:31;;;;;;;14.57;10.73;;;;;;;17.88;100.00;100748.69;5050663;28;20355;-77
2022/08/18 00:15:56;;;;;;;14.97;10.73;;;;;;;17.88;100.00;100748.69;5059239;28;20074;-76
2022/08/18 00:18:22;;;;;;;15.73;11.05;;;;;;;17.86;100.00;100748.91;5048380;28;20024;-79
2022/08/18 00:20:47;;;;;;;12.63;10.27;;;;;;;17.86;100.00;100735.41;5043509;28;20927;-79
2022/08/18 00:23:13;;;;;;;15.33;10.97;;;;;;;17.81;100.00;100737.88;5053180;28;20112;-76
2022/08/18 00:25:39;;;;;;;17.27;11.13;;;;;;;17.79;100.00;100737.22;5055921;28;20482;-76
2022/08/18 00:28:04;;;;;;;15.70;10.97;;;;;;;17.71;100.00;100732.88;5053345;28;20040;-77
2022/08/18 00:30:30;;;;;;;13.87;11.13;;;;;;;17.64;100.00;100729.38;5037770;28;20275;-78
2022/08/18 00:32:57;;;;;;;13.13;9.98;;;;;;;17.66;100.00;100724.59;5046985;28;20407;-78
2022/08/18 00:35:32;;;;;;;14.50;10.30;;;;;;;17.64;100.00;100717.75;5060954;28;20098;-76
2022/08/18 00:38:00;;;;;;;15.23;10.90;;;;;;;17.57;100.00;100712.34;5046862;28;20833;-76
2022/08/18 00:40:29;;;;;;;10.30;8.75;;;;;;;17.51;100.00;100727.53;5062917;28;20113;-79
2022/08/18 00:42:57;;;;;;;13.23;10.57;;;;;;;17.55;100.00;100724.41;5030245;28;20691;-80
2022/08/18 00:45:32;;;;;;;12.00;10.20;;;;;;;17.56;100.00;100726.91;5031653;28;20032;-75
2022/08/18 00:47:58;;;;;;;12.45;9.50;;;;;;;17.51;100.00;100730.22;5051362;28;20033;-79
2022/08/18 00:50:33;;;;;;;11.20;9.68;;;;;;;17.48;100.00;100732.50;5030455;28;20020;-80
2022/08/18 00:53:04;;;;;;;9.27;8.35;;;;;;;17.51;100.00;100723.97;5070819;28;20029;-78
2022/08/18 00:55:32;;;;;;;13.45;9.63;;;;;;;17.53;100.00;100730.00;5043888;28;20033;-79
2022/08/18 00:58:09;;;;;;;10.43;9.30;;;;;;;17.51;100.00;100718.56;5047290;28;20024;-78
2022/08/18 01:00:36;;;;;;;10.15;8.73;;;;;;;17.54;100.00;100723.59;5056439;28;20479;-79
2022/08/18 01:03:09;;;;;;;10.80;7.90;;;;;;;17.48;100.00;100719.00;5047685;28;20024;-79
2022/08/18 01:05:39;;;;;;;8.60;7.30;;;;;;;17.49;100.00;100726.91;5057227;28;20033;-81
2022/08/18 01:08:10;;;;;;;9.25;7.82;;;;;;;17.45;100.00;100724.81;5045065;28;20028;-79
2022/08/18 01:10:36;;;;;;;9.50;7.82;;;;;;;17.47;100.00;100726.28;5044604;28;20024;-78
2022/08/18 01:13:02;;;;;;;10.18;8.02;;;;;;;17.46;100.00;100721.06;5045393;28;20033;-78
2022/08/18 01:15:27;;;;;;;9.63;8.67;;;;;;;17.50;100.00;100715.06;5044822;28;20896;-79
2022/08/18 01:23:47;;;;;;;11.77;7.22;;;;;;;17.50;100.00;100722.31;5027167;28;20090;-80
2022/08/18 01:26:15;;;;;;;11.82;8.15;;;;;;;17.55;100.00;100721.69;5054617;28;20135;-78
2022/08/18 01:28:43;;;;;;;8.90;8.00;;;;;;;17.56;100.00;100723.34;5045498;28;20449;-79
2022/08/18 01:31:09;;;;;;;11.23;7.72;;;;;;;17.55;100.00;100724.41;5046624;28;20032;-80
2022/08/18 01:33:39;;;;;;;10.75;7.78;;;;;;;17.55;100.00;100724.41;5060786;28;20097;-80
2022/08/18 01:36:15;;;;;;;8.88;7.82;;;;;;;17.51;100.00;100718.56;5061071;28;20370;-78
2022/08/18 01:38:46;;;;;;;11.43;7.90;;;;;;;17.46;100.00;100712.97;5051385;28;20044;-79
2022/08/18 01:41:11;;;;;;;10.05;8.55;;;;;;;17.44;100.00;100712.34;5064470;28;20516;-81
2022/08/18 01:43:38;;;;;;;9.93;8.10;;;;;;;17.35;100.00;100724.41;5082426;28;20024;-81
2022/08/18 01:46:04;;;;;;;11.80;8.20;;;;;;;17.31;100.00;100715.91;5082811;28;20044;-79
2022/08/18 01:48:32;;;;;;;8.98;8.07;;;;;;;17.25;100.00;100704.06;5049578;28;20386;-79
2022/08/18 01:51:02;;;;;;;12.10;8.32;;;;;;;17.30;100.00;100714.22;5044142;28;20123;-79
2022/08/18 01:53:28;;;;;;;10.15;8.48;;;;;;;17.32;100.00;100705.94;5080419;28;20082;-78
2022/08/18 01:55:54;;;;;;;9.45;8.55;;;;;;;17.20;100.00;100693.06;5064370;28;20049;-80
2022/08/18 01:58:23;;;;;;;10.60;8.60;;;;;;;17.18;100.00;100689.72;5063180;28;20413;-79
2022/08/18 02:00:49;;;;;;;9.70;8.70;;;;;;;17.21;100.00;100702.00;5064354;28;20481;-80
2022/08/18 02:03:15;;;;;;;10.38;7.95;;;;;;;17.12;100.00;100697.84;5046466;28;20048;-80
2022/08/18 02:05:45;;;;;;;9.20;7.67;;;;;;;17.15;100.00;100690.16;5064447;28;20037;-79
2022/08/18 02:08:11;;;;;;;11.38;8.35;;;;;;;17.13;100.00;100684.13;5047256;28;20428;-81
2022/08/18 02:10:38;;;;;;;12.20;8.50;;;;;;;17.15;100.00;100692.84;5060849;28;20046;-80
2022/08/18 02:13:04;;;;;;;9.27;7.85;;;;;;;17.14;100.00;100684.97;5060655;28;20139;-79
2022/08/18 02:15:30;;;;;;;8.40;7.50;;;;;;;17.05;100.00;100695.97;5048176;28;20470;-81
2022/08/18 02:17:55;;;;;;;12.02;9.50;;;;;;;16.99;100.00;100687.88;5064393;28;20094;-81
2022/08/18 02:20:20;;;;;;;15.10;10.00;;;;;;;16.91;100.00;100685.38;5064027;28;20083;-81
2022/08/18 02:22:47;;;;;;;10.90;9.77;;;;;;;16.86;100.00;100677.91;5050836;28;20275;-80
2022/08/18 02:25:14;;;;;;;10.50;8.40;;;;;;;16.80;100.00;100684.94;5064760;28;20470;-82
2022/08/18 02:27:40;;;;;;;10.50;8.35;;;;;;;16.71;100.00;100667.25;5040540;28;20032;-81
2022/08/18 02:30:09;;;;;;;9.68;7.97;;;;;;;16.72;100.00;100660.84;5046941;28;20111;-81
2022/08/18 02:32:35;;;;;;;10.73;9.00;;;;;;;16.73;100.00;100665.19;5041114;28;20037;-81
2022/08/18 02:35:03;;;;;;;8.35;7.57;;;;;;;16.69;100.00;100661.25;5081465;28;20033;-81
2022/08/18 02:37:29;;;;;;;8.68;7.60;;;;;;;16.66;100.00;100661.66;5058580;28;20033;-78
2022/08/18 02:39:56;;;;;;;10.35;9.05;;;;;;;16.63;100.00;100660.19;5063704;28;20024;-80
2022/08/18 02:42:21;;;;;;;;;;;;;;;16.67;100.00;100660.63;5063081;28;20429;-82
2022/08/18 02:44:47;;;;;;;;;;;;;;;16.67;100.00;100664.16;5064382;28;20443;-80
2022/08/18 02:47:12;;;;;;;9.33;7.77;;;;;;;16.63;100.00;100656.69;5056089;28;20420;-79
2022/08/18 02:49:37;;;;;;;11.00;7.90;;;;;;;16.63;100.00;100662.06;5063355;28;20040;-79
2022/08/18 02:52:03;;;;;;;8.73;7.83;;;;;;;16.63;100.00;100662.06;5064079;28;20044;-79
2022/08/18 02:54:28;;;;;;;7.27;6.57;;;;;;;16.65;100.00;100651.94;5079000;28;20024;-79
2022/08/18 02:56:55;;;;;;;17.50;7.10;;;;;;;16.71;100.00;100652.97;5057359;28;20043;-79
2022/08/18 02:59:23;;;;;;;11.73;8.40;;;;;;;16.76;100.00;100645.91;5055464;28;20132;-79
2022/08/18 03:01:51;;;;;;;10.18;9.15;;;;;;;16.75;100.00;100646.94;5064396;28;20062;-80
2022/08/18 03:04:24;;;;;;;12.55;8.48;;;;;;;16.74;100.00;100641.75;5048764;28;20116;-79
2022/08/18 03:06:50;;;;;;;12.93;9.68;;;;;;;16.67;100.00;100636.38;5080476;28;20134;-79
2022/08/18 03:09:16;;;;;;;10.40;8.23;;;;;;;16.71;100.00;100644.88;5078279;28;20104;-80
2022/08/18 03:11:42;;;;;;;11.45;9.23;;;;;;;16.70;100.00;100643.22;5063088;28;20037;-79
2022/08/18 03:14:08;;;;;;;13.48;9.48;;;;;;;16.66;100.00;100645.47;5063280;28;20047;-78
2022/08/18 03:16:35;;;;;;;11.87;10.20;;;;;;;16.66;100.00;100643.59;5062294;28;20502;-79
2022/08/18 03:19:01;;;;;;;14.23;10.70;;;;;;;16.62;100.00;100655.88;5063133;28;20024;-79
2022/08/18 03:21:30;;;;;;;9.93;8.93;;;;;;;16.60;100.00;100651.69;5061515;28;20063;-80
2022/08/18 03:23:55;;;;;;;16.17;11.88;;;;;;;16.57;100.00;100655.63;5063408;28;20082;-80
2022/08/18 03:26:23;;;;;;;15.25;11.57;;;;;;;16.53;100.00;100659.78;5045394;28;20040;-80
2022/08/18 03:28:51;;;;;;;14.80;10.55;;;;;;;16.53;100.00;100667.00;5066769;28;20448;-79
2022/08/18 03:31:18;;;;;;;14.15;10.88;;;;;;;16.52;100.00;100670.75;5060906;28;20094;-80
2022/08/18 03:33:45;;;;;;;15.75;13.57;;;;;;;16.45;100.00;100671.56;5063644;28;20052;-79
2022/08/18 03:36:17;;;;;;;19.67;13.27;;;;;;;16.44;100.00;100683.38;5047991;28;20081;-81
2022/08/18 03:38:45;;;;;;;15.98;12.80;;;;;;;16.38;100.00;100688.75;5049159;28;20047;-77
2022/08/18 03:41:12;;;;;;;15.10;13.13;;;;;;;16.39;100.00;100688.53;5047735;28;20031;-79
2022/08/18 03:43:38;;;;;;;12.88;11.40;;;;;;;16.28;100.00;100688.28;5062453;28;20041;-77
2022/08/18 03:46:08;;;;;;;17.75;12.60;;;;;;;16.31;100.00;100694.09;5048846;28;20036;-79
2022/08/18 03:48:34;;;;;;;14.20;12.30;;;;;;;16.30;100.00;100692.44;5061930;28;20536;-79
2022/08/18 03:51:07;;;;;;;;;;;;;;;16.28;100.00;100691.00;5048966;28;20495;-80
2022/08/18 03:53:34;;;;;;;20.38;13.02;;;;;;;16.24;100.00;100694.06;5046852;28;19916;-78
2022/08/18 03:56:00;;;;;;;21.20;15.20;;;;;;;16.18;100.00;100683.28;5062150;28;20083;-80
2022/08/18 03:58:26;;;;;;;19.90;13.88;;;;;;;16.16;100.00;100686.19;5060738;28;20029;-79
2022/08/18 04:00:51;;;;;;;17.95;14.10;;;;;;;16.11;100.00;100685.09;5062189;28;20486;-80
2022/08/18 04:03:17;;;;;;;17.50;13.43;;;;;;;16.18;100.00;100691.38;5047279;28;20055;-78
2022/08/18 04:05:42;;;;;;;19.87;16.17;;;;;;;16.22;100.00;100684.53;5065861;28;20278;-77
2022/08/18 04:08:08;;;;;;;21.83;14.80;;;;;;;16.27;100.00;100689.31;5048173;28;20185;-77
2022/08/18 04:10:34;;;;;;;16.20;14.00;;;;;;;16.29;100.00;100693.47;5078073;28;20054;-77
2022/08/18 04:12:59;;;;;;;;;;;;;;;16.37;100.00;100701.38;5048966;28;20405;-79
2022/08/18 04:15:25;;;;;;;;;;;;;;;16.42;100.00;100698.91;5061355;28;19917;-80
2022/08/18 04:17:50;;;;;;;15.80;13.80;;;;;;;16.39;100.00;100699.31;5078466;28;19971;-80
2022/08/18 04:20:16;;;;;;;15.17;13.63;;;;;;;16.42;100.00;100693.53;5046167;28;20460;-79
2022/08/18 04:22:41;;;;;;;17.13;13.80;;;;;;;16.45;100.00;100700.38;5048446;28;20039;-78
2022/08/18 04:25:08;;;;;;;18.73;16.53;;;;;;;16.46;100.00;100697.47;5040948;28;20415;-80
2022/08/18 04:27:35;;;;;;;17.02;14.52;;;;;;;16.44;100.00;100693.34;5060754;28;20041;-77
2022/08/18 04:30:01;;;;;;;20.08;17.02;;;;;;;16.48;100.00;100704.53;5047480;28;20032;-79
2022/08/18 04:32:30;;;;;;;16.27;13.95;;;;;;;16.46;100.00;100700.19;5043544;28;20025;-79
2022/08/18 04:34:55;;;;;;;15.63;13.43;;;;;;;16.52;100.00;100692.31;5064864;28;20039;-79
2022/08/18 04:37:21;;;;;;;17.57;14.33;;;;;;;16.52;100.00;100687.75;5060539;28;20218;-79
2022/08/18 04:39:47;;;;;;;17.20;15.30;;;;;;;16.61;100.00;100701.88;5062603;28;20036;-79
2022/08/18 04:42:13;;;;;;;;;;;;;;;16.64;100.00;100701.47;5061540;28;20467;-78
2022/08/18 04:44:39;;;;;;;;;;;;;;;16.75;100.00;100708.13;5079720;28;20003;-78
2022/08/18 04:47:06;;;;;;;;;;;;;;;16.77;100.00;100712.28;5078768;28;19923;-78
2022/08/18 04:49:32;;;;;;;17.80;13.63;;;;;;;16.82;100.00;100704.44;5075024;28;20344;-79
2022/08/18 04:54:42;;;;;;;16.92;15.13;;;;;;;17.00;100.00;100708.41;5078478;28;20091;-78
2022/08/18 04:57:10;;;;;;;16.80;14.07;;;;;;;17.09;100.00;100710.72;5047321;28;20059;-78
2022/08/18 04:59:39;;;;;;;19.58;17.52;;;;;;;17.16;100.00;100704.47;5060592;28;20354;-78
2022/08/18 05:02:07;;;;;;;20.33;16.58;;;;;;;17.23;100.00;100698.06;5054742;28;20036;-78
2022/08/18 05:04:36;;;;;;;16.33;14.65;;;;;;;17.34;100.00;100703.84;5057712;28;20029;-78
2022/08/18 05:07:02;;;;;;;17.30;15.57;;;;;;;17.39;100.00;100704.88;5062423;28;20055;-80
2022/08/18 05:09:28;;;;;;;17.10;15.40;;;;;;;17.55;100.00;100705.50;5063241;28;20102;-77
2022/08/18 05:11:53;;;;;;;17.73;15.93;;;;;;;17.67;100.00;100699.25;5044754;28;20029;-78
2022/08/18 05:14:20;;;;;;;14.83;13.30;;;;;;;17.96;100.00;100702.56;5063250;28;20561;-78
2022/08/18 05:16:45;;;;;;;13.73;12.38;;;;;;;18.39;100.00;100710.06;5062640;28;20104;-79
2022/08/18 05:19:11;;;;;;;15.30;13.15;;;;;;;18.90;100.00;100694.84;5049525;28;20133;-78
2022/08/18 05:21:40;;;;;;;12.00;10.75;;;;;;;19.55;100.00;100686.38;5041097;28;20025;-78
2022/08/18 05:24:07;;;;;;;12.18;9.15;;;;;;;19.61;100.00;100661.94;5050301;28;20037;-79
2022/08/18 05:26:33;;;;;;;15.48;9.95;;;;;;;19.37;100.00;100639.28;5049589;28;20031;-76
2022/08/18 05:28:59;;;;;;;11.73;10.48;;;;;;;19.57;100.00;100630.97;5049396;28;20064;-79
2022/08/18 05:31:27;;;;;;;12.68;9.55;;;;;;;19.77;100.00;100630.78;5040318;28;20037;-79
2022/08/18 05:33:57;;;;;;;12.75;10.40;;;;;;;19.87;100.00;100624.81;5055440;28;20102;-77
2022/08/18 05:36:42;;;;;;;12.18;10.55;;;;;;;20.14;100.00;100614.50;5052932;28;20504;-79
2022/08/18 05:39:16;;;;;;;10.68;9.48;;;;;;;20.11;100.00;100605.97;5046561;28;20033;-76
2022/08/18 05:41:50;;;;;;;12.80;9.90;;;;;;;20.05;100.00;100594.19;5048437;28;20558;-78
2022/08/18 05:44:26;;;;;;;15.40;13.05;;;;;;;20.09;100.00;100605.38;5049405;28;20047;-77
2022/08/18 05:46:58;;;;;;;11.68;10.52;;;;;;;20.35;100.00;100617.75;5057516;28;20037;-79
2022/08/18 05:49:25;;;;;;;12.63;9.50;;;;;;;20.80;100.00;100629.00;5055167;28;20059;-78
2022/08/18 05:51:57;;;;;;;11.40;10.20;;;;;;;20.95;100.00;100604.09;5049282;28;20025;-80
2022/08/18 05:57:15;;;;;;;15.07;10.27;;;;;;;20.78;100.00;100600.44;5049443;28;20402;-79
2022/08/18 05:59:43;;;;;;;12.68;11.27;;;;;;;20.59;100.00;100602.41;5059262;28;20363;-79
2022/08/18 06:02:30;;;;;;;11.18;9.88;;;;;;;20.78;100.00;100614.81;5061449;28;20029;-79
2022/08/18 06:05:04;;;;;;;12.77;11.10;;;;;;;21.59;100.00;100634.13;5056688;28;20040;-80
2022/08/18 06:07:33;;;;;;;11.05;9.52;;;;;;;21.80;100.00;100586.50;5048706;28;20075;-79
2022/08/18 06:09:59;;;;;;;13.52;8.98;;;;;;;22.09;100.00;100570.19;5047152;28;20509;-80
2022/08/18 06:12:34;;;;;;;12.20;9.85;;;;;;;22.80;100.00;100603.28;5052633;28;20064;-78
2022/08/18 06:15:18;;;;;;;14.57;10.67;;;;;;;23.17;100.00;100557.34;5065900;28;20456;-79
2022/08/18 06:17:55;;;;;;;9.95;8.50;;;;;;;23.66;100.00;100490.41;5047617;28;20052;-78
2022/08/18 06:20:35;;;;;;;12.23;10.75;;;;;;;23.97;100.00;100446.03;5065434;28;20132;-78
2022/08/18 06:23:46;;;;;;;11.82;9.13;;;;;;;24.09;100.00;100431.41;5064630;28;20038;-79
2022/08/18 06:26:41;;;;;;;10.90;9.82;;;;;;;23.89;100.00;100421.97;5060388;28;20055;-79
2022/08/18 06:29:16;;;;;;;;;;;;;;;24.20;100.00;100438.59;5057578;28;20049;-78
2022/08/18 06:31:54;;;;;;;9.68;8.73;;;;;;;24.08;100.00;100375.22;5043908;28;19959;-79
2022/08/18 06:34:46;;;;;;;12.02;9.25;;;;;;;23.73;100.00;100440.03;5065063;28;20070;-79
2022/08/18 06:37:19;;;;;;;11.18;10.07;;;;;;;24.23;100.00;100495.34;5081488;28;20048;-78
2022/08/18 06:39:48;;;;;;;11.88;9.65;;;;;;;24.61;100.00;100453.41;5052536;28;20025;-78
2022/08/18 06:42:29;;;;;;;12.80;10.05;;;;;;;24.50;100.00;100371.72;5075216;28;20502;-80
2022/08/18 06:44:59;;;;;;;11.40;9.13;;;;;;;23.86;100.00;100438.84;5042900;28;20036;-78
2022/08/18 06:47:44;;;;;;;11.43;9.48;;;;;;;23.88;100.00;100488.50;5064407;28;20024;-78
2022/08/18 06:50:21;;;;;;;14.95;9.18;;;;;;;24.75;100.00;100502.88;5051208;28;20283;-78
2022/08/18 06:52:59;;;;;;;19.40;11.73;;;;;;;23.86;100.00;100328.97;5053856;28;20066;-79
2022/08/18 06:55:33;;;;;;;15.02;10.50;;;;;;;24.23;100.00;100484.44;5064673;28;20051;-79
2022/08/18 06:58:02;;;;;;;14.68;10.32;;;;;;;23.73;100.00;100368.38;5051325;28;20046;-78
2022/08/18 07:00:31;;;;;;;18.05;12.07;;;;;;;22.84;100.00;100422.09;5064474;28;20500;-77
2022/08/18 07:03:03;;;;;;;13.00;10.25;;;;;;;23.00;100.00;100607.47;5067835;28;20036;-78
2022/08/18 07:05:34;;;;;;;14.55;11.00;;;;;;;23.35;100.00;100534.44;5042046;28;20031;-79
2022/08/18 07:08:14;;;;;;;14.98;11.23;;;;;;;24.23;100.00;100555.34;5064872;28;20493;-79
2022/08/18 07:10:45;;;;;;;12.00;9.52;;;;;;;24.09;100.00;100543.22;5043447;28;20028;-78
2022/08/18 07:13:11;;;;;;;16.38;10.60;;;;;;;23.99;100.00;100528.38;5063564;28;20619;-79
2022/08/18 07:15:36;;;;;;;14.00;10.90;;;;;;;23.56;100.00;100481.03;5056924;28;20127;-78
2022/08/18 07:18:07;;;;;;;12.68;10.80;;;;;;;23.67;100.00;100524.72;5044818;28;20026;-77
2022/08/18 07:20:52;;;;;;;14.52;9.80;;;;;;;24.19;100.00;100641.50;5024212;28;20041;-76
2022/08/18 07:23:37;;;;;;;15.15;9.18;;;;;;;24.29;100.00;100527.03;5064441;28;20044;-76
2022/08/18 07:26:07;;;;;;;16.10;10.85;;;;;;;23.96;100.00;100520.72;5050239;28;20624;-75
2022/08/18 07:28:43;;;;;;;17.17;9.90;;;;;;;24.52;100.00;100517.72;5043850;28;20120;-76
2022/08/18 07:31:35;;;;;;;15.45;9.50;;;;;;;25.40;100.00;100478.97;5057511;28;20043;-76
2022/08/18 07:34:07;;;;;;;14.52;9.60;;;;;;;24.15;100.00;100397.66;5046856;28;20556;-76
2022/08/18 07:36:42;;;;;;;16.10;10.35;;;;;;;23.68;100.00;100471.88;5048534;28;20040;-75
2022/08/18 07:39:19;;;;;;;15.00;11.55;;;;;;;23.08;100.00;100556.09;5048313;28;20124;-76
2022/08/18 07:41:54;;;;;;;13.98;11.10;;;;;;;23.03;100.00;100558.75;5056666;28;20041;-77
2022/08/18 07:44:31;;;;;;;12.35;9.25;;;;;;;24.15;100.00;100637.66;5062162;28;20028;-78
2022/08/18 07:47:00;;;;;;;13.48;10.75;;;;;;;23.94;100.00;100562.97;5064720;28;20043;-78
2022/08/18 07:49:32;;;;;;;15.63;11.32;;;;;;;24.12;100.00;100545.44;5048018;28;20605;-77
2022/08/18 07:52:20;;;;;;;13.93;10.30;;;;;;;24.89;100.00;100544.22;5064895;28;20045;-77
2022/08/18 07:54:45;;;;;;;12.70;10.38;;;;;;;24.33;100.00;100571.81;5041013;28;20043;-76
2022/08/18 07:57:26;;;;;;;12.30;10.10;;;;;;;25.20;100.00;100555.34;5065520;28;20044;-76
2022/08/18 08:00:11;;;;;;;13.35;9.10;;;;;;;25.66;100.00;100501.72;5047443;28;20033;-76
2022/08/18 08:02:57;;;;;;;10.88;9.35;;;;;;;25.35;100.00;100525.38;5042297;28;20509;-76
2022/08/18 08:05:42;;;;;;;12.65;8.93;;;;;;;25.39;100.00;100520.19;5054766;28;20033;-78
2022/08/18 08:08:18;;;;;;;13.10;11.35;;;;;;;24.90;100.00;100427.63;5054936;28;20044;-79
2022/08/18 08:11:03;;;;;;;11.57;10.30;;;;;;;25.31;100.00;100493.38;5053417;28;20044;-76
2022/08/18 08:14:05;;;;;;;12.55;10.73;;;;;;;25.45;100.00;100494.53;5057923;28;20890;-75
2022/08/18 08:16:56;;;;;;;13.95;10.65;;;;;;;25.19;100.00;100486.25;5042847;28;20025;-78
2022/08/18 08:19:54;;;;;;;10.85;9.75;;;;;;;25.37;100.00;100486.84;5063252;28;20094;-75
2022/08/18 08:22:28;;;;;;;11.88;9.57;;;;;;;25.45;100.00;100565.56;5046963;28;20040;-79
2022/08/18 08:25:03;;;;;;;13.80;9.48;;;;;;;25.60;100.00;100562.94;5047762;28;20041;-79
2022/08/18 08:27:43;;;;;;;16.63;10.70;;;;;;;25.97;100.00;100526.44;5041112;28;20434;-78
2022/08/18 08:30:12;;;;;;;17.02;8.77;;;;;;;25.99;100.00;100518.78;5049996;28;20036;-78
2022/08/18 08:33:00;;;;;;;12.95;9.13;;;;;;;26.81;100.00;100499.66;5054958;28;20025;-76
2022/08/18 08:35:36;;;;;;;11.77;10.43;;;;;;;26.19;100.00;100301.03;5057015;28;20029;-79
2022/08/18 08:38:09;;;;;;;13.93;9.23;;;;;;;27.27;100.00;100468.56;5059953;28;20511;-77
2022/08/18 08:40:42;;;;;;;13.40;8.88;;;;;;;27.81;100.00;100343.50;5053769;28;20047;-77
2022/08/18 08:43:17;;;;;;;12.05;10.05;;;;;;;27.73;100.00;100295.56;5046250;28;20028;-79
2022/08/18 08:45:49;;;;;;;13.63;9.52;;;;;;;27.65;100.00;100255.88;5043657;28;20037;-79
2022/08/18 08:48:25;;;;;;;16.17;14.57;;;;;;;25.88;100.00;100249.13;5044085;28;20036;-76
2022/08/18 08:51:02;;;;;;;19.38;12.45;;;;;;;27.03;100.00;100517.69;5058344;28;20043;-78
2022/08/18 08:53:49;;;;;;;13.77;11.60;;;;;;;28.17;99.45;100309.16;5042051;28;20642;-79
2022/08/18 08:56:18;;;;;;;16.92;12.60;;;;;;;28.10;98.17;100280.44;5034809;28;20498;-77
2022/08/18 08:59:03;;;;;;;13.35;11.27;;;;;;;28.30;99.58;100343.31;5061896;28;20031;-79
2022/08/18 09:01:50;;;;;;;19.33;14.68;;;;;;;27.30;100.00;100255.09;5051552;28;20112;-78
2022/08/18 09:04:28;;;;;;;15.15;13.23;;;;;;;28.42;94.84;100290.75;5045070;28;20099;-77
2022/08/18 09:07:14;;;;;;;16.58;13.52;;;;;;;28.56;92.84;100293.63;5045454;28;20041;-78
2022/08/18 09:09:58;;;;;;;;;;;;;;;28.27;88.73;100164.69;5038348;28;20048;-77
2022/08/18 09:12:40;;;;;;;14.75;12.43;;;;;;;28.31;87.14;100150.09;5054086;28;20841;-77
2022/08/18 09:15:18;;;;;;;19.70;13.15;;;;;;;28.20;89.01;100218.00;5044768;28;20037;-77
2022/08/18 09:17:52;;;;;;;21.08;13.98;;;;;;;27.37;92.44;100178.03;5051850;28;20037;-77
2022/08/18 09:20:54;;;;;;;16.05;11.75;;;;;;;26.81;97.24;100206.63;5044242;28;20045;-78
2022/08/18 09:23:25;;;;;;;14.80;11.25;;;;;;;26.76;100.00;100354.50;5046219;28;20059;-77
2022/08/18 09:25:54;;;;;;;17.17;11.65;;;;;;;27.61;95.96;100304.19;5044760;28;20167;-78
2022/08/18 09:28:28;;;;;;;13.65;12.15;;;;;;;28.03;88.54;100195.72;5028156;28;20021;-76
2022/08/18 09:31:04;;;;;;;11.07;9.52;;;;;;;28.08;88.74;100217.59;5044239;28;20044;-77
2022/08/18 09:33:45;;;;;;;10.45;9.27;;;;;;;28.38;94.17;100356.41;5039065;28;20035;-78
2022/08/18 09:36:35;;;;;;;14.48;10.55;;;;;;;27.84;91.10;100225.84;5047258;28;20045;-77
2022/08/18 09:42:15;;;;;;;13.15;9.40;;;;;;;29.06;88.48;100310.56;5057334;28;20115;-76
2022/08/18 09:44:46;;;;;;;12.77;10.90;;;;;;;29.55;77.21;100099.44;5040605;28;20479;-77
2022/08/18 09:47:23;;;;;;;15.68;12.40;;;;;;;28.07;83.18;100050.53;5054544;28;20043;-77
2022/08/18 09:49:54;;;;;;;13.65;11.45;;;;;;;27.20;90.02;100101.69;5043831;28;20122;-76
2022/08/18 09:52:20;;;;;;;15.30;10.88;;;;;;;27.85;97.21;100388.47;5045591;28;20028;-77
2022/08/18 09:54:59;;;;;;;11.55;9.10;;;;;;;29.22;82.53;100239.69;5044842;28;20081;-77
2022/08/18 09:57:29;;;;;;;12.13;10.70;;;;;;;29.37;79.61;100189.97;5045668;28;20036;-78
2022/08/18 09:59:57;;;;;;;13.45;10.93;;;;;;;28.58;80.16;100094.53;5059891;28;20044;-77
2022/08/18 10:02:26;;;;;;;13.13;9.93;;;;;;;29.31;85.75;100374.56;5049869;28;20052;-77
2022/08/18 10:05:14;;;;;;;14.18;10.35;;;;;;;30.12;74.08;100127.47;5048187;28;20029;-77
2022/08/18 10:08:16;;;;;;;11.75;10.15;;;;;;;30.27;73.78;100154.72;5041891;28;20091;-77
2022/08/18 10:11:22;;;;;;;10.93;9.77;;;;;;;29.22;75.01;100048.13;5059040;28;20681;-77
2022/08/18 10:14:06;;;;;;;14.15;12.43;;;;;;;29.94;70.57;100015.59;5048329;28;20290;-79
2022/08/18 10:17:04;;;;;;;10.38;9.25;;;;;;;30.61;69.17;100084.53;5061776;28;20033;-76
2022/08/18 10:19:40;;;;;;;10.23;9.15;;;;;;;30.66;67.29;99999.00;5011003;28;20049;-77
2022/08/18 10:22:09;;;;;;;15.68;10.57;;;;;;;29.37;72.12;99997.53;5056528;28;20055;-76
2022/08/18 10:24:58;;;;;;;11.60;9.15;;;;;;;30.52;69.73;100102.94;5047721;28;20356;-77
2022/08/18 10:27:43;;;;;;;12.43;11.20;;;;;;;30.70;68.13;100071.63;5048506;28;20128;-77
2022/08/18 10:30:31;;;;;;;12.60;11.18;;;;;;;30.05;67.13;99957.25;5047942;28;20094;-77
2022/08/18 10:32:57;;;;;;;13.70;11.38;;;;;;;30.85;65.58;99989.75;5043442;28;20032;-80
2022/08/18 10:35:32;;;;;;;;;;;;;;;30.84;67.55;100070.78;5039825;28;20048;-77
2022/08/18 10:38:19;;;;;;;12.43;10.73;;;;;;;30.64;64.83;99942.59;5055866;28;19917;-78
2022/08/18 10:41:05;;;;;;;12.63;10.23;;;;;;;30.76;67.31;100060.47;5042560;28;20102;-77
2022/08/18 10:43:43;;;;;;;14.20;12.00;;;;;;;28.85;72.53;99957.59;5040685;28;20040;-76
2022/08/18 10:46:30;;;;;;;13.15;11.70;;;;;;;29.02;74.94;100071.28;5060949;28;20041;-78
2022/08/18 10:49:13;;;;;;;16.10;12.52;;;;;;;28.86;79.20;100185.28;5053513;28;20029;-77
2022/08/18 10:51:52;;;;;;;15.48;12.68;;;;;;;30.46;72.17;100193.13;5048822;28;20039;-77
2022/08/18 10:54:44;;;;;;;17.48;12.13;;;;;;;30.80;69.88;100171.69;5047664;28;20102;-79
2022/08/18 10:57:39;;;;;;;14.05;12.43;;;;;;;30.38;67.52;100025.06;5047121;28;20037;-77
2022/08/18 11:00:18;;;;;;;13.10;11.60;;;;;;;30.64;66.73;100039.81;5030084;28;20053;-78
2022/08/18 11:03:07;;;;;;;10.88;9.65;;;;;;;31.31;68.13;100220.91;5047343;28;20636;-77
2022/08/18 11:05:33;;;;;;;16.92;13.43;;;;;;;31.19;64.05;99974.47;5052697;28;20692;-78
2022/08/18 11:08:01;;;;;;;;;;;;;;;29.93;67.56;99936.94;5039229;28;20024;-76
2022/08/18 11:10:47;;;;;;;15.90;13.50;;;;;;;29.51;71.48;100015.97;5045062;28;19913;-77
2022/08/18 11:13:24;;;;;;;16.77;13.23;;;;;;;30.05;69.57;100039.03;5053897;28;20057;-78
2022/08/18 11:16:01;;;;;;;13.90;12.50;;;;;;;30.37;69.97;100104.13;5041934;28;20455;-78
2022/08/18 11:18:38;;;;;;;12.10;10.30;;;;;;;29.92;68.28;99969.13;5056903;28;20186;-79
2022/08/18 11:21:23;;;;;;;12.73;10.95;;;;;;;29.71;72.99;100108.25;5048864;28;20036;-78
2022/08/18 11:24:09;;;;;;;12.70;11.40;;;;;;;30.36;67.49;99988.78;5052057;28;20501;-77
2022/08/18 11:26:38;;;;;;;11.40;9.85;;;;;;;30.89;71.47;100245.06;5047843;28;20064;-77
2022/08/18 11:29:30;;;;;;;16.52;10.05;;;;;;;31.65;72.08;100370.44;5028980;28;20029;-80
2022/08/18 11:32:01;;;;;;;11.77;10.32;;;;;;;31.28;65.55;100041.47;5052332;28;20136;-77
2022/08/18 11:34:51;;;;;;;12.27;10.40;;;;;;;31.15;62.49;99857.72;5047649;28;20046;-78
2022/08/18 11:37:43;;;;;;;12.27;10.70;;;;;;;30.48;70.07;100123.94;5061314;28;20059;-77
2022/08/18 11:40:17;;;;;;;9.80;8.80;;;;;;;31.27;69.74;100238.41;5061048;28;20029;-77
2022/08/18 11:42:58;;;;;;;12.43;10.93;;;;;;;30.59;65.72;99905.00;5045719;28;20041;-78
2022/08/18 11:45:28;;;;;;;14.27;11.77;;;;;;;30.28;68.84;99996.66;5060685;28;20498;-77
2022/08/18 11:48:18;;;;;;;19.42;10.40;;;;;;;31.11;67.34;100119.41;5064701;28;20035;-77
2022/08/18 11:50:46;;;;;;;15.00;12.07;;;;;;;31.02;65.33;100002.78;5038852;28;20079;-77
2022/08/18 11:53:36;;;;;;;17.98;13.85;;;;;;;30.58;68.00;100021.81;5048560;28;20048;-78